createdAt,value
2023-07-25T00:01:43.180Z,-82
2023-07-25T00:04:15.612Z,-81
2023-07-25T00:06:47.958Z,-81
2023-07-25T00:09:20.503Z,-82
2023-07-25T00:11:52.850Z,-81
2023-07-25T00:14:27.819Z,-80
2023-07-25T00:17:00.170Z,-82
2023-07-25T00:19:33.019Z,-81
2023-07-25T00:22:05.824Z,-80
2023-07-25T00:24:38.360Z,-81
2023-07-25T00:27:11.028Z,-81
2023-07-25T00:29:46.100Z,-81
2023-07-25T00:32:18.529Z,-80
2023-07-25T00:34:50.845Z,-80
2023-07-25T00:37:23.400Z,-79
2023-07-25T00:39:59.596Z,-80
2023-07-25T00:42:32.037Z,-81
2023-07-25T00:45:07.068Z,-81
2023-07-25T00:47:39.778Z,-80
2023-07-25T00:50:13.940Z,-80
2023-07-25T00:52:46.935Z,-78
2023-07-25T00:55:19.579Z,-82
2023-07-25T00:57:52.961Z,-82
2023-07-25T01:00:27.959Z,-81
2023-07-25T01:03:00.643Z,-81
2023-07-25T01:05:37.786Z,-82
2023-07-25T01:08:11.728Z,-82
2023-07-25T01:10:44.000Z,-81
2023-07-25T01:13:16.312Z,-83
2023-07-25T01:15:52.097Z,-81
2023-07-25T01:18:26.318Z,-81
2023-07-25T01:20:58.967Z,-80
2023-07-25T01:23:34.276Z,-81
2023-07-25T01:26:09.177Z,-81
2023-07-25T01:28:41.684Z,-81
2023-07-25T01:31:14.149Z,-82
2023-07-25T01:33:46.485Z,-81
2023-07-25T01:36:18.806Z,-80
2023-07-25T01:38:51.169Z,-79
2023-07-25T01:41:25.955Z,-79
2023-07-25T01:43:58.313Z,-79
2023-07-25T01:46:30.731Z,-79
2023-07-25T01:49:03.205Z,-80
2023-07-25T01:51:35.601Z,-79
2023-07-25T01:54:08.105Z,-79
2023-07-25T01:56:42.954Z,-79
2023-07-25T01:59:15.830Z,-79
2023-07-25T02:01:48.185Z,-79
2023-07-25T02:04:20.576Z,-80
2023-07-25T02:06:52.863Z,-80
2023-07-25T02:09:26.222Z,-79
2023-07-25T02:12:01.457Z,-79
2023-07-25T02:14:33.717Z,-80
2023-07-25T02:17:06.776Z,-80
2023-07-25T02:19:39.486Z,-81
2023-07-25T02:22:11.853Z,-80
2023-07-25T02:24:44.134Z,-80
2023-07-25T02:27:19.216Z,-79
2023-07-25T02:29:51.643Z,-80
2023-07-25T02:32:23.880Z,-79
2023-07-25T02:34:56.276Z,-79
2023-07-25T02:37:29.731Z,-79
2023-07-25T02:40:01.969Z,-80
2023-07-25T02:42:36.865Z,-79
2023-07-25T02:45:10.093Z,-79
2023-07-25T02:47:43.598Z,-79
2023-07-25T02:50:16.099Z,-79
2023-07-25T02:52:48.375Z,-79
2023-07-25T02:55:20.850Z,-80
2023-07-25T02:57:55.771Z,-80
2023-07-25T03:00:28.253Z,-79
2023-07-25T03:03:00.678Z,-80
2023-07-25T03:05:35.439Z,-79
2023-07-25T03:08:08.260Z,-78
2023-07-25T03:10:40.559Z,-80
2023-07-25T03:13:15.742Z,-80
2023-07-25T03:15:48.150Z,-80
2023-07-25T03:18:21.592Z,-80
2023-07-25T03:20:53.864Z,-81
2023-07-25T03:23:26.292Z,-81
2023-07-25T03:25:58.656Z,-80
2023-07-25T03:28:33.858Z,-80
2023-07-25T03:31:06.397Z,-80
2023-07-25T03:33:38.779Z,-80
2023-07-25T03:36:11.425Z,-80
2023-07-25T03:38:43.889Z,-80
2023-07-25T03:41:16.217Z,-80
2023-07-25T03:43:51.097Z,-81
2023-07-25T03:46:23.387Z,-80
2023-07-25T03:48:55.809Z,-80
2023-07-25T03:51:28.116Z,-80
2023-07-25T03:54:00.386Z,-80
2023-07-25T03:56:32.636Z,-80
2023-07-25T03:59:07.770Z,-80
2023-07-25T04:01:40.213Z,-80
2023-07-25T04:04:13.786Z,-79
2023-07-25T04:06:46.158Z,-80
2023-07-25T04:09:18.668Z,-80
2023-07-25T04:11:51.015Z,-80
2023-07-25T04:14:25.947Z,-80
2023-07-25T04:16:58.234Z,-80
2023-07-25T04:19:30.628Z,-80
2023-07-25T04:22:02.998Z,-80
2023-07-25T04:24:35.386Z,-79
2023-07-25T04:27:08.079Z,-80
2023-07-25T04:29:43.026Z,-80
2023-07-25T04:32:15.315Z,-78
2023-07-25T04:34:47.686Z,-79
2023-07-25T04:37:20.140Z,-79
2023-07-25T04:39:52.548Z,-79
2023-07-25T04:42:24.936Z,-80
2023-07-25T04:44:59.846Z,-79
2023-07-25T04:47:33.424Z,-81
2023-07-25T04:50:06.032Z,-79
2023-07-25T04:52:38.504Z,-79
2023-07-25T04:55:12.149Z,-79
2023-07-25T04:57:44.640Z,-78
2023-07-25T05:00:20.110Z,-79
2023-07-25T05:02:52.851Z,-80
2023-07-25T05:05:25.269Z,-79
2023-07-25T05:07:57.566Z,-78
2023-07-25T05:10:29.828Z,-79
2023-07-25T05:13:02.117Z,-78
2023-07-25T05:15:38.753Z,-79
2023-07-25T05:18:11.172Z,-80
2023-07-25T05:20:43.747Z,-80
2023-07-25T05:23:16.204Z,-79
2023-07-25T05:25:50.417Z,-80
2023-07-25T05:28:23.861Z,-80
2023-07-25T05:30:58.818Z,-81
2023-07-25T05:33:31.127Z,-80
2023-07-25T05:36:07.030Z,-80
2023-07-25T05:38:39.409Z,-80
2023-07-25T05:41:11.891Z,-80
2023-07-25T05:43:44.275Z,-80
2023-07-25T05:46:21.454Z,-81
2023-07-25T05:48:56.468Z,-80
2023-07-25T05:51:28.832Z,-80
2023-07-25T05:54:01.995Z,-80
2023-07-25T05:56:34.370Z,-80
2023-07-25T05:59:06.935Z,-79
2023-07-25T06:01:43.609Z,-80
2023-07-25T06:04:16.777Z,-80
2023-07-25T06:06:49.111Z,-79
2023-07-25T06:09:21.539Z,-80
2023-07-25T06:11:54.644Z,-80
2023-07-25T06:14:27.039Z,-80
2023-07-25T06:17:01.936Z,-80
2023-07-25T06:19:34.389Z,-80
2023-07-25T06:22:06.895Z,-81
2023-07-25T06:24:40.096Z,-80
2023-07-25T06:27:12.885Z,-80
2023-07-25T06:29:45.163Z,-80
2023-07-25T06:32:20.237Z,-80
2023-07-25T06:34:52.619Z,-81
2023-07-25T06:37:25.031Z,-81
2023-07-25T06:39:57.494Z,-80
2023-07-25T06:42:29.798Z,-80
2023-07-25T06:45:04.072Z,-80
2023-07-25T06:47:39.121Z,-80
2023-07-25T06:50:12.398Z,-80
2023-07-25T06:52:44.768Z,-77
2023-07-25T06:55:20.605Z,-82
2023-07-25T06:57:53.294Z,-79
2023-07-25T07:00:25.781Z,-80
2023-07-25T07:03:00.814Z,-79
2023-07-25T07:05:35.886Z,-80
2023-07-25T07:08:10.046Z,-79
2023-07-25T07:10:42.376Z,-80
2023-07-25T07:13:14.749Z,-80
2023-07-25T07:15:50.480Z,-81
2023-07-25T07:18:26.532Z,-79
2023-07-25T07:20:58.801Z,-78
2023-07-25T07:23:31.108Z,-78
2023-07-25T07:26:03.414Z,-78
2023-07-25T07:28:35.810Z,-79
2023-07-25T07:31:10.532Z,-79
2023-07-25T07:33:45.523Z,-80
2023-07-25T07:36:17.794Z,-79
2023-07-25T07:38:50.190Z,-79
2023-07-25T07:41:22.435Z,-79
2023-07-25T07:43:54.940Z,-79
2023-07-25T07:46:27.399Z,-79
2023-07-25T07:49:03.038Z,-77
2023-07-25T07:51:35.463Z,-77
2023-07-25T07:54:07.941Z,-77
2023-07-25T07:56:40.330Z,-77
2023-07-25T07:59:13.103Z,-78
2023-07-25T08:01:45.812Z,-78
2023-07-25T08:04:20.763Z,-79
2023-07-25T08:06:53.360Z,-78
2023-07-25T08:09:26.082Z,-78
2023-07-25T08:11:58.436Z,-77
2023-07-25T08:14:30.930Z,-78
2023-07-25T08:17:03.252Z,-78
2023-07-25T08:19:38.104Z,-78
2023-07-25T08:22:11.482Z,-78
2023-07-25T08:24:44.501Z,-77
2023-07-25T08:27:18.287Z,-77
2023-07-25T08:29:50.825Z,-77
2023-07-25T08:32:23.251Z,-77
2023-07-25T08:34:58.331Z,-78
2023-07-25T08:37:31.065Z,-78
2023-07-25T08:40:03.582Z,-77
2023-07-25T08:42:39.166Z,-78
2023-07-25T08:45:12.613Z,-78
2023-07-25T08:47:46.425Z,-78
2023-07-25T08:50:22.802Z,-78
2023-07-25T08:53:01.244Z,-77
2023-07-25T08:55:33.614Z,-77
2023-07-25T08:58:07.965Z,-77
2023-07-25T09:00:41.336Z,-77
2023-07-25T09:03:15.824Z,-78
2023-07-25T09:05:51.160Z,-76
2023-07-25T09:08:23.694Z,-77
2023-07-25T09:10:58.185Z,-78
2023-07-25T09:13:31.266Z,-79
2023-07-25T09:16:03.655Z,-79
2023-07-25T09:18:36.625Z,-79
2023-07-25T09:21:13.327Z,-79
2023-07-25T09:23:55.661Z,-79
2023-07-25T09:26:30.504Z,-79
2023-07-25T09:29:04.781Z,-78
2023-07-25T09:31:48.130Z,-79
2023-07-25T09:34:21.740Z,-78
2023-07-25T09:36:57.024Z,-78
2023-07-25T09:39:29.486Z,-75
2023-07-25T09:42:01.945Z,-76
2023-07-25T09:44:38.090Z,-77
2023-07-25T09:47:13.322Z,-77
2023-07-25T09:49:52.854Z,-79
2023-07-25T09:52:28.232Z,-77
2023-07-25T09:55:00.519Z,-77
2023-07-25T09:57:33.770Z,-78
2023-07-25T10:00:10.875Z,-79
2023-07-25T10:02:43.543Z,-79
2023-07-25T10:05:16.485Z,-77
2023-07-25T10:07:55.451Z,-78
2023-07-25T10:10:31.512Z,-76
2023-07-25T10:13:04.255Z,-77
2023-07-25T10:15:37.665Z,-79
2023-07-25T10:18:23.624Z,-75
2023-07-25T10:20:58.075Z,-77
2023-07-25T10:23:39.330Z,-77
2023-07-25T10:26:15.775Z,-76
2023-07-25T10:28:49.258Z,-78
2023-07-25T10:31:28.995Z,-76
2023-07-25T10:34:05.550Z,-77
2023-07-25T10:36:37.953Z,-77
2023-07-25T10:39:29.542Z,-77
2023-07-25T10:42:04.505Z,-77
2023-07-25T10:44:41.926Z,-77
2023-07-25T10:47:52.697Z,-76
2023-07-25T10:50:30.221Z,-77
2023-07-25T10:53:02.588Z,-77
2023-07-25T10:55:37.768Z,-76
2023-07-25T10:58:14.104Z,-77
2023-07-25T11:00:47.043Z,-77
2023-07-25T11:03:32.953Z,-77
2023-07-25T11:06:35.167Z,-77
2023-07-25T11:09:19.265Z,-77
2023-07-25T11:11:57.659Z,-77
2023-07-25T11:14:30.689Z,-76
2023-07-25T11:17:02.953Z,-77
2023-07-25T11:19:35.338Z,-78
2023-07-25T11:22:13.933Z,-77
2023-07-25T11:24:47.016Z,-77
2023-07-25T11:27:23.818Z,-78
2023-07-25T11:29:56.165Z,-77
2023-07-25T11:32:33.240Z,-78
2023-07-25T11:35:06.135Z,-79
2023-07-25T11:37:38.845Z,-78
2023-07-25T11:40:19.115Z,-78
2023-07-25T11:42:55.246Z,-77
2023-07-25T11:45:28.283Z,-76
2023-07-25T11:48:01.872Z,-76
2023-07-25T11:50:34.923Z,-74
2023-07-25T11:53:08.982Z,-76
2023-07-25T11:55:43.619Z,-77
2023-07-25T11:58:24.036Z,-77
2023-07-25T12:00:57.801Z,-78
2023-07-25T12:03:32.103Z,-78
2023-07-25T12:06:06.353Z,-78
2023-07-25T12:08:40.915Z,-77
2023-07-25T12:11:15.217Z,-77
2023-07-25T12:13:52.641Z,-77
2023-07-25T12:16:35.967Z,-78
2023-07-25T12:19:10.902Z,-76
2023-07-25T12:21:45.862Z,-77
2023-07-25T12:24:21.194Z,-76
2023-07-25T12:26:56.889Z,-78
2023-07-25T12:29:32.157Z,-77
2023-07-25T12:32:04.922Z,-78
2023-07-25T12:34:37.198Z,-78
2023-07-25T12:37:10.417Z,-77
2023-07-25T12:39:43.056Z,-77
2023-07-25T12:42:15.412Z,-78
2023-07-25T12:44:50.302Z,-77
2023-07-25T12:47:22.958Z,-78
2023-07-25T12:49:55.189Z,-79
2023-07-25T12:52:27.623Z,-78
2023-07-25T12:54:59.865Z,-77
2023-07-25T12:57:32.461Z,-77
2023-07-25T13:00:09.304Z,-77
2023-07-25T13:02:41.732Z,-77
2023-07-25T13:05:14.425Z,-77
2023-07-25T13:07:47.158Z,-78
2023-07-25T13:10:19.537Z,-78
2023-07-25T13:12:51.777Z,-78
2023-07-25T13:15:26.773Z,-79
2023-07-25T13:17:59.330Z,-78
2023-07-25T13:20:31.941Z,-77
2023-07-25T13:23:04.367Z,-77
2023-07-25T13:25:36.794Z,-77
2023-07-25T13:28:09.823Z,-77
2023-07-25T13:30:45.732Z,-77
2023-07-25T13:33:21.120Z,-72
2023-07-25T13:35:53.455Z,-77
2023-07-25T13:38:25.901Z,-78
2023-07-25T13:40:58.622Z,-77
2023-07-25T13:43:32.938Z,-78
2023-07-25T13:46:09.061Z,-78
2023-07-25T13:48:41.535Z,-77
2023-07-25T13:51:13.926Z,-77
2023-07-25T13:53:46.279Z,-77
2023-07-25T13:56:18.645Z,-78
2023-07-25T13:58:51.055Z,-77
2023-07-25T14:01:26.029Z,-78
2023-07-25T14:03:58.416Z,-77
2023-07-25T14:06:30.815Z,-78
2023-07-25T14:09:03.177Z,-77
2023-07-25T14:11:35.733Z,-77
2023-07-25T14:14:08.150Z,-77
2023-07-25T14:16:43.046Z,-78
2023-07-25T14:19:15.772Z,-77
2023-07-25T14:21:48.665Z,-77
2023-07-25T14:24:21.169Z,-77
2023-07-25T14:26:53.577Z,-76
2023-07-25T14:29:25.984Z,-76
2023-07-25T14:32:00.911Z,-77
2023-07-25T14:34:33.270Z,-77
2023-07-25T14:37:05.607Z,-77
2023-07-25T14:39:38.020Z,-77
2023-07-25T14:42:10.792Z,-77
2023-07-25T14:44:43.029Z,-78
2023-07-25T14:47:18.189Z,-78
2023-07-25T14:49:50.530Z,-78
2023-07-25T14:52:22.983Z,-76
2023-07-25T14:54:55.252Z,-76
2023-07-25T14:57:27.727Z,-77
2023-07-25T15:00:01.102Z,-76
2023-07-25T15:02:36.117Z,-77
2023-07-25T15:05:09.121Z,-77
2023-07-25T15:07:42.601Z,-77
2023-07-25T15:10:15.689Z,-76
2023-07-25T15:12:48.180Z,-77
2023-07-25T15:15:20.553Z,-78
2023-07-25T15:17:56.552Z,-76
2023-07-25T15:20:29.284Z,-76
2023-07-25T15:23:01.682Z,-76
2023-07-25T15:25:34.006Z,-77
2023-07-25T15:28:06.602Z,-78
2023-07-25T15:30:39.326Z,-78
2023-07-25T15:33:14.749Z,-76
2023-07-25T15:35:47.064Z,-78
2023-07-25T15:38:19.472Z,-78
2023-07-25T15:40:51.767Z,-77
2023-07-25T15:43:25.342Z,-81
2023-07-25T15:45:57.693Z,-81
2023-07-25T15:48:32.664Z,-80
2023-07-25T15:51:05.059Z,-80
2023-07-25T15:53:37.343Z,-80
2023-07-25T15:56:09.884Z,-80
2023-07-25T15:58:43.235Z,-78
2023-07-25T16:01:15.631Z,-79
2023-07-25T16:03:51.562Z,-79
2023-07-25T16:06:26.474Z,-80
2023-07-25T16:09:00.012Z,-79
2023-07-25T16:11:32.820Z,-80
2023-07-25T16:14:05.857Z,-79
2023-07-25T16:16:38.331Z,-79
2023-07-25T16:19:13.427Z,-80
2023-07-25T16:21:45.832Z,-79
2023-07-25T16:24:18.197Z,-80
2023-07-25T16:26:50.639Z,-80
2023-07-25T16:29:23.395Z,-80
2023-07-25T16:31:58.962Z,-82
2023-07-25T16:34:34.804Z,-81
2023-07-25T16:37:07.085Z,-79
2023-07-25T16:39:39.379Z,-79
2023-07-25T16:42:13.413Z,-84
2023-07-25T16:44:45.709Z,-86
2023-07-25T16:47:18.256Z,-85
2023-07-25T16:49:53.091Z,-85
2023-07-25T16:52:25.443Z,-85
2023-07-25T16:54:57.781Z,-87
2023-07-25T16:57:30.143Z,-86
2023-07-25T17:00:02.621Z,-88
2023-07-25T17:02:35.037Z,-87
2023-07-25T17:05:10.583Z,-87
2023-07-25T17:07:44.155Z,-84
2023-07-25T17:10:19.094Z,-85
2023-07-25T17:12:51.389Z,-84
2023-07-25T17:15:23.835Z,-82
2023-07-25T17:17:57.790Z,-87
2023-07-25T17:20:32.814Z,-84
2023-07-25T17:23:05.857Z,-85
2023-07-25T17:25:39.855Z,-83
2023-07-25T17:28:14.891Z,-83
2023-07-25T17:30:47.494Z,-83
2023-07-25T17:33:19.831Z,-83
2023-07-25T17:35:54.654Z,-83
2023-07-25T17:38:27.236Z,-85
2023-07-25T17:40:59.718Z,-81
2023-07-25T17:43:32.102Z,-82
2023-07-25T17:46:04.390Z,-83
2023-07-25T17:48:36.879Z,-83
2023-07-25T17:51:11.757Z,-84
2023-07-25T17:53:44.055Z,-82
2023-07-25T17:56:16.498Z,-84
2023-07-25T17:58:48.984Z,-83
2023-07-25T18:01:21.312Z,-82
2023-07-25T18:03:53.768Z,-82
2023-07-25T18:06:28.661Z,-82
2023-07-25T18:09:01.177Z,-81
2023-07-25T18:11:33.872Z,-83
2023-07-25T18:14:06.521Z,-83
2023-07-25T18:16:38.930Z,-81
2023-07-25T18:19:11.559Z,-83
2023-07-25T18:21:46.400Z,-85
2023-07-25T18:24:18.763Z,-82
2023-07-25T18:26:51.216Z,-84
2023-07-25T18:29:24.653Z,-83
2023-07-25T18:31:57.034Z,-83
2023-07-25T18:34:29.327Z,-83
2023-07-25T18:37:04.186Z,-82
2023-07-25T18:39:38.717Z,-82
2023-07-25T18:42:11.737Z,-83
2023-07-25T18:44:44.051Z,-83
2023-07-25T18:47:28.557Z,-84
2023-07-25T18:50:06.436Z,-83
2023-07-25T18:52:41.434Z,-83
2023-07-25T18:55:14.360Z,-82
2023-07-25T18:57:47.721Z,-82
2023-07-25T19:00:20.446Z,-85
2023-07-25T19:02:52.937Z,-85
2023-07-25T19:05:25.313Z,-83
2023-07-25T19:08:01.102Z,-84
2023-07-25T19:10:33.593Z,-84
2023-07-25T19:13:05.940Z,-83
2023-07-25T19:15:38.213Z,-82
2023-07-25T19:18:10.720Z,-86
2023-07-25T19:20:43.095Z,-85
2023-07-25T19:23:26.126Z,-83
2023-07-25T19:26:04.222Z,-83
2023-07-25T19:28:36.804Z,-85
2023-07-25T19:31:09.741Z,-85
2023-07-25T19:33:42.109Z,-84
2023-07-25T19:36:14.499Z,-83
2023-07-25T19:38:49.660Z,-84
2023-07-25T19:41:22.807Z,-84
2023-07-25T19:43:55.388Z,-82
2023-07-25T19:46:27.723Z,-81
2023-07-25T19:49:00.341Z,-81
2023-07-25T19:51:32.653Z,-84
2023-07-25T19:54:07.880Z,-85
2023-07-25T19:56:41.736Z,-82
2023-07-25T19:59:14.227Z,-83
2023-07-25T20:01:46.801Z,-83
2023-07-25T20:04:19.312Z,-82
2023-07-25T20:06:52.112Z,-83
2023-07-25T20:09:27.312Z,-82
2023-07-25T20:11:59.565Z,-82
2023-07-25T20:14:31.837Z,-82
2023-07-25T20:17:04.924Z,-81
2023-07-25T20:19:37.402Z,-85
2023-07-25T20:22:10.414Z,-81
2023-07-25T20:24:45.367Z,-82
2023-07-25T20:27:18.366Z,-81
2023-07-25T20:29:50.659Z,-84
2023-07-25T20:32:23.061Z,-82
2023-07-25T20:34:55.424Z,-83
2023-07-25T20:37:29.193Z,-83
2023-07-25T20:40:07.160Z,-82
2023-07-25T20:42:40.910Z,-83
2023-07-25T20:45:15.623Z,-82
2023-07-25T20:47:48.897Z,-79
2023-07-25T20:50:21.480Z,-83
2023-07-25T20:52:55.235Z,-84
2023-07-25T20:55:30.513Z,-82
2023-07-25T20:58:02.921Z,-82
2023-07-25T21:00:35.222Z,-82
2023-07-25T21:03:07.663Z,-82
2023-07-25T21:05:43.553Z,-81
2023-07-25T21:08:16.895Z,-81
2023-07-25T21:10:53.179Z,-82
2023-07-25T21:13:25.491Z,-82
2023-07-25T21:15:58.032Z,-84
2023-07-25T21:18:31.537Z,-81
2023-07-25T21:21:04.003Z,-83
2023-07-25T21:23:37.413Z,-82
2023-07-25T21:26:12.586Z,-82
2023-07-25T21:28:44.961Z,-83
2023-07-25T21:31:17.363Z,-82
2023-07-25T21:33:49.615Z,-83
2023-07-25T21:36:21.947Z,-81
2023-07-25T21:38:56.034Z,-81
2023-07-25T21:41:31.127Z,-81
2023-07-25T21:44:03.895Z,-81
2023-07-25T21:46:38.361Z,-81
2023-07-25T21:49:15.190Z,-83
2023-07-25T21:51:47.453Z,-83
2023-07-25T21:54:19.864Z,-82
2023-07-25T21:56:54.849Z,-83
2023-07-25T21:59:27.307Z,-82
2023-07-25T22:01:59.632Z,-81
2023-07-25T22:04:32.044Z,-82
2023-07-25T22:07:05.339Z,-82
2023-07-25T22:09:37.621Z,-83
2023-07-25T22:12:14.164Z,-82
2023-07-25T22:14:46.422Z,-83
2023-07-25T22:17:18.970Z,-81
2023-07-25T22:19:51.418Z,-81
2023-07-25T22:22:23.756Z,-81
2023-07-25T22:24:59.135Z,-81
2023-07-25T22:27:34.289Z,-81
2023-07-25T22:30:06.872Z,-82
2023-07-25T22:32:39.367Z,-82
2023-07-25T22:35:12.604Z,-82
2023-07-25T22:37:46.273Z,-81
2023-07-25T22:40:18.534Z,-82
2023-07-25T22:42:53.461Z,-82
2023-07-25T22:45:26.463Z,-80
2023-07-25T22:47:59.082Z,-80
2023-07-25T22:50:31.445Z,-80
2023-07-25T22:53:03.770Z,-81
2023-07-25T22:55:37.245Z,-81
2023-07-25T22:58:12.996Z,-82
2023-07-25T23:00:45.429Z,-83
2023-07-25T23:03:18.203Z,-80
2023-07-25T23:05:51.253Z,-83
2023-07-25T23:08:23.759Z,-83
2023-07-25T23:10:58.618Z,-81
2023-07-25T23:13:33.633Z,-83
2023-07-25T23:16:06.047Z,-84
2023-07-25T23:18:38.549Z,-81
2023-07-25T23:21:10.910Z,-83
2023-07-25T23:23:43.736Z,-84
2023-07-25T23:26:16.907Z,-82
2023-07-25T23:28:51.889Z,-83
2023-07-25T23:31:24.267Z,-81
2023-07-25T23:33:56.571Z,-81
2023-07-25T23:36:28.957Z,-82
2023-07-25T23:39:01.472Z,-82
2023-07-25T23:41:35.541Z,-84
2023-07-25T23:44:11.069Z,-82
2023-07-25T23:46:43.725Z,-83
2023-07-25T23:49:16.321Z,-83
2023-07-25T23:51:48.667Z,-84
2023-07-25T23:54:21.001Z,-82
2023-07-25T23:56:54.126Z,-83
2023-07-25T23:59:29.273Z,-82
